Weather at James M Cox Dayton International Airport

Public forecast

Using degrees Fahrenheit for public forecast. Weather courtesy of forecast.io.

Current aviation weather report (METAR) for James M Cox Dayton International Airport

Retrieved 2020/11/23 17:56 UTC (13 minutes ago):

KDAY 231756Z 32008KT 10SM BKN030 07/01 A3030 RMK AO2 SLP265 T00670006 10089 20033 50000

Aviation forecast (TAF) for James M Cox Dayton International Airport

Retrieved 2020/11/23 18:33 UTC (0 seconds ago):

TAF KDAY 231731Z 2318/2418 31008KT P6SM BKN025 FM232000 34006KT P6SM SCT030 SCT250 FM240200 01003KT P6SM BKN150 FM241100 12005KT P6SM VCSH OVC070 FM241500 13007KT P6SM OVC050